Time;durP1;ratioP1;P1;durP2;ratioP2;P2;SDS_P1;SDS_P2;PMS_P1;PMS_P2;Temp;Humidity;BMP_temperature;BMP_pressure;BME280_temperature;BME280_humidity;BME280_pressure;Samples;Min_cycle;Max_cycle;Signal;HPM_P1;HPM_P2
2022/08/27 00:01:19;;;;;;;;;;;;;;;29.64;40.27;94136.38;4930162;29;7086;-60
2022/08/27 00:04:01;;;;;;;;;;;;;;;29.65;40.65;94144.13;4909688;29;7022;-60
2022/08/27 00:06:38;;;;;;;;;;;;;;;29.66;41.13;94144.88;4941213;29;7309;-61
2022/08/27 00:09:06;;;;;;;;;;;;;;;29.66;40.31;94144.88;4935762;29;7068;-60
2022/08/27 00:11:32;;;;;;;;;;;;;;;29.63;40.77;94143.19;4960664;28;7129;-60
2022/08/27 00:14:03;;;;;;;;;;;;;;;29.60;41.28;94135.97;4965903;28;7192;-60
2022/08/27 00:16:29;;;;;;;;;;;;;;;29.60;40.36;94125.59;4972234;28;10371;-60
2022/08/27 00:18:57;;;;;;;;;;;;;;;29.62;41.20;94133.41;5008879;28;7407;-60
2022/08/27 00:21:33;;;;;;;;;;;;;;;29.62;41.28;94116.75;4986572;28;7250;-60
2022/08/27 00:24:03;;;;;;;;;;;;;;;29.59;40.79;94117.84;5008755;28;7222;-60
2022/08/27 00:26:40;;;;;;;;;;;;;;;29.60;40.80;94111.75;4996493;28;9407;-61
2022/08/27 00:29:16;;;;;;;;;;;;;;;29.58;40.23;94108.06;4993197;28;7382;-60
2022/08/27 00:31:48;;;;;;;;;;;;;;;29.62;40.52;94114.00;5011314;28;7182;-60
2022/08/27 00:34:18;;;;;;;;;;;;;;;29.62;40.41;94114.00;5004837;28;7799;-60
2022/08/27 00:36:54;;;;;;;;;;;;;;;29.61;40.46;94104.94;5004527;28;7142;-60
2022/08/27 00:39:28;;;;;;;;;;;;;;;29.60;40.20;94108.25;4968205;28;8485;-60
2022/08/27 00:41:56;;;;;;;;;;;;;;;29.61;40.23;94104.94;4993319;28;7209;-60
2022/08/27 00:44:22;;;;;;;;;;;;;;;29.62;40.66;94097.38;5008934;28;8345;-60
2022/08/27 00:47:19;;;;;;;;;;;;;;;29.60;40.29;94095.13;4979039;28;7276;-60
2022/08/27 00:50:23;;;;;;;;;;;;;;;29.60;40.99;94094.41;4980340;28;7260;-60
2022/08/27 00:53:22;;;;;;;;;;;;;;;29.59;41.18;94095.66;4993104;28;7185;-60
2022/08/27 00:56:00;;;;;;;;;;;;;;;29.59;41.09;94090.88;4987510;28;7188;-60
2022/08/27 00:58:34;;;;;;;;;;;;;;;29.57;40.90;94087.91;4993874;28;7402;-60
2022/08/27 01:01:13;;;;;;;;;;;;;;;29.56;40.26;94093.97;4989866;28;10695;-60
2022/08/27 01:03:46;;;;;;;;;;;;;;;29.56;40.34;94093.97;4991848;28;7669;-60
2022/08/27 01:06:14;;;;;;;;;;;;;;;29.56;40.30;94093.97;4991168;28;7486;-60
2022/08/27 01:08:56;;;;;;;;;;;;;;;29.56;40.97;94086.41;4974153;28;7339;-60
2022/08/27 01:11:45;;;;;;;;;;;;;;;29.57;40.98;94081.63;4992970;28;7636;-60
2022/08/27 01:14:21;;;;;;;;;;;;;;;29.56;40.92;94080.13;4987130;28;7181;-60
2022/08/27 01:16:54;;;;;;;;;;;;;;;29.56;40.86;94080.88;4983035;28;7427;-61
2022/08/27 01:19:36;;;;;;;;;;;;;;;29.57;40.08;94067.75;4990211;28;7159;-60
2022/08/27 01:22:14;;;;;;;;;;;;;;;29.56;41.14;94069.78;4983755;28;7067;-60
2022/08/27 01:24:45;;;;;;;;;;;;;;;29.56;40.75;94067.00;5003009;28;7953;-60
2022/08/27 01:27:23;;;;;;;;;;;;;;;29.57;40.45;94065.00;4992512;28;7210;-60
2022/08/27 01:29:54;;;;;;;;;;;;;;;29.54;40.77;94061.28;4991198;28;8979;-60
2022/08/27 01:32:26;;;;;;;;;;;;;;;29.54;40.33;94060.53;4988796;28;7129;-60
2022/08/27 01:34:56;;;;;;;;;;;;;;;29.53;41.14;94065.34;4990825;28;8497;-60
2022/08/27 01:37:25;;;;;;;;;;;;;;;29.54;40.15;94063.28;5005948;28;9306;-60
2022/08/27 01:39:55;;;;;;;;;;;;;;;29.52;40.33;94060.31;4987641;28;7395;-60
2022/08/27 01:42:44;;;;;;;;;;;;;;;29.52;41.03;94063.09;5005185;28;8434;-60
2022/08/27 01:45:15;;;;;;;;;;;;;;;29.53;40.70;94065.34;5012071;28;7106;-60
2022/08/27 01:47:41;;;;;;;;;;;;;;;29.51;40.72;94061.63;4983989;28;7204;-60
2022/08/27 01:50:17;;;;;;;;;;;;;;;29.51;40.39;94067.91;5000416;28;7189;-60
2022/08/27 01:52:44;;;;;;;;;;;;;;;29.51;40.69;94062.38;4982293;28;7403;-60
2022/08/27 01:55:15;;;;;;;;;;;;;;;29.51;40.36;94062.38;4999704;28;7209;-60
2022/08/27 01:58:20;;;;;;;;;;;;;;;29.51;40.57;94067.16;5009852;28;7039;-60
2022/08/27 02:01:08;;;;;;;;;;;;;;;29.52;40.36;94065.88;4946647;28;7179;-60
2022/08/27 02:03:36;;;;;;;;;;;;;;;29.51;40.50;94067.16;4949474;28;7253;-60
2022/08/27 02:06:10;;;;;;;;;;;;;;;29.51;40.61;94061.63;4946380;28;8324;-60
2022/08/27 02:08:39;;;;;;;;;;;;;;;29.50;40.63;94054.59;4945305;28;7326;-60
2022/08/27 02:11:07;;;;;;;;;;;;;;;29.50;40.16;94044.25;4944017;28;7422;-60
2022/08/27 02:13:42;;;;;;;;;;;;;;;29.50;40.33;94046.28;4941140;28;7487;-60
2022/08/27 02:16:17;;;;;;;;;;;;;;;29.50;40.64;94055.34;4946624;28;7593;-60
2022/08/27 02:19:22;;;;;;;;;;;;;;;29.49;40.80;94051.06;4949475;28;7084;-60
2022/08/27 02:22:04;;;;;;;;;;;;;;;29.49;40.94;94053.84;4880209;29;6978;-60
2022/08/27 02:24:40;;;;;;;;;;;;;;;29.47;40.65;94047.38;4890582;29;7223;-60
2022/08/27 02:27:22;;;;;;;;;;;;;;;29.48;40.50;94046.09;4892717;29;8687;-60
2022/08/27 02:29:50;;;;;;;;;;;;;;;29.48;41.10;94046.09;4892022;29;9133;-60
2022/08/27 02:32:17;;;;;;;;;;;;;;;29.48;40.92;94046.09;4889600;29;7087;-60
2022/08/27 02:34:51;;;;;;;;;;;;;;;29.47;40.83;94045.34;4897838;29;7587;-60
2022/08/27 02:37:43;;;;;;;;;;;;;;;29.47;41.12;94053.66;4945992;28;8104;-60
2022/08/27 02:40:21;;;;;;;;;;;;;;;29.46;41.38;94054.94;4942921;28;7215;-61
2022/08/27 02:42:49;;;;;;;;;;;;;;;29.43;40.34;94046.97;4917635;29;7378;-60
2022/08/27 02:45:20;;;;;;;;;;;;;;;29.45;40.13;94052.72;4922522;29;6990;-60
2022/08/27 02:48:03;;;;;;;;;;;;;;;29.46;40.06;94054.19;4936648;28;7076;-60
2022/08/27 02:50:40;;;;;;;;;;;;;;;29.46;40.72;94046.63;4940997;28;7246;-60
2022/08/27 02:53:07;;;;;;;;;;;;;;;29.45;40.46;94053.44;4972015;28;7210;-58
2022/08/27 02:55:44;;;;;;;;;;;;;;;29.43;41.27;94053.25;4990328;28;7879;-60
2022/08/27 02:58:32;;;;;;;;;;;;;;;29.46;40.65;94054.19;4966572;28;7346;-60
2022/08/27 03:01:14;;;;;;;;;;;;;;;29.44;40.63;94048.47;4987631;28;8560;-60
2022/08/27 03:03:42;;;;;;;;;;;;;;;29.43;40.63;94049.72;4986145;28;7293;-60
2022/08/27 03:06:19;;;;;;;;;;;;;;;29.41;40.82;94053.06;4986517;28;7234;-60
2022/08/27 03:08:54;;;;;;;;;;;;;;;29.39;40.85;94047.31;4983926;28;8475;-60
2022/08/27 03:11:32;;;;;;;;;;;;;;;29.41;41.33;94035.69;5003535;28;9500;-60
2022/08/27 03:13:59;;;;;;;;;;;;;;;29.41;40.47;94032.91;4989050;28;9432;-60
2022/08/27 03:16:26;;;;;;;;;;;;;;;29.42;40.80;94031.66;5001063;28;7352;-60
2022/08/27 03:18:52;;;;;;;;;;;;;;;29.43;40.41;94033.13;4980857;28;8632;-60
2022/08/27 03:21:23;;;;;;;;;;;;;;;29.45;40.97;94030.56;5002842;28;9286;-60
2022/08/27 03:24:09;;;;;;;;;;;;;;;29.45;40.58;94030.56;4987441;28;7282;-60
2022/08/27 03:27:02;;;;;;;;;;;;;;;29.45;40.61;94027.78;4988553;28;7229;-60
2022/08/27 03:29:28;;;;;;;;;;;;;;;29.45;40.29;94027.78;4996554;28;7170;-60
2022/08/27 03:32:14;;;;;;;;;;;;;;;29.43;40.94;94024.78;4986977;28;7384;-60
2022/08/27 03:34:42;;;;;;;;;;;;;;;29.41;40.78;94017.03;5003211;28;6940;-60
2022/08/27 03:37:09;;;;;;;;;;;;;;;29.42;40.86;94026.09;4997285;28;7198;-60
2022/08/27 03:39:38;;;;;;;;;;;;;;;29.40;40.58;94025.91;4988307;28;10780;-60
2022/08/27 03:42:04;;;;;;;;;;;;;;;29.42;40.37;94031.66;4990725;28;7029;-60
2022/08/27 03:44:32;;;;;;;;;;;;;;;29.41;40.48;94028.13;4983152;28;7362;-60
2022/08/27 03:46:58;;;;;;;;;;;;;;;29.42;40.46;94026.09;4995537;28;9485;-60
2022/08/27 03:49:27;;;;;;;;;;;;;;;29.43;40.63;94024.78;4997647;28;7261;-60
2022/08/27 03:51:53;;;;;;;;;;;;;;;29.44;40.64;94029.06;4994379;28;7247;-60
2022/08/27 03:54:27;;;;;;;;;;;;;;;29.42;40.53;94020.56;5001823;28;9501;-60
2022/08/27 03:56:53;;;;;;;;;;;;;;;29.41;40.22;94008.72;4985214;28;8466;-60
2022/08/27 03:59:37;;;;;;;;;;;;;;;29.43;40.32;94016.47;4991244;28;7174;-60
2022/08/27 04:02:08;;;;;;;;;;;;;;;29.42;40.95;94006.72;4998716;28;7302;-60
2022/08/27 04:04:34;;;;;;;;;;;;;;;29.42;40.75;94003.94;4999582;28;9442;-60
2022/08/27 04:07:00;;;;;;;;;;;;;;;29.42;40.85;94003.94;4985843;28;9610;-60
2022/08/27 04:09:26;;;;;;;;;;;;;;;29.41;40.26;94003.19;5006866;28;9415;-60
2022/08/27 04:11:54;;;;;;;;;;;;;;;29.40;41.03;94001.72;5011529;28;7190;-60
2022/08/27 04:14:23;;;;;;;;;;;;;;;29.39;40.95;94000.22;5008272;28;7016;-60
2022/08/27 04:16:55;;;;;;;;;;;;;;;29.38;40.96;94004.28;5020093;28;7187;-60
2022/08/27 04:19:31;;;;;;;;;;;;;;;29.38;40.79;94003.53;4992359;28;6988;-60
2022/08/27 04:22:03;;;;;;;;;;;;;;;29.38;40.65;94009.09;4994936;28;7336;-60
2022/08/27 04:24:34;;;;;;;;;;;;;;;29.35;40.29;93994.28;4994065;28;7437;-60
2022/08/27 04:27:04;;;;;;;;;;;;;;;29.36;40.67;94000.59;5005162;28;7565;-60
2022/08/27 04:29:36;;;;;;;;;;;;;;;29.37;40.41;94002.78;4990229;28;7227;-60
2022/08/27 04:32:16;;;;;;;;;;;;;;;29.37;40.35;94007.59;4984677;28;10289;-60
2022/08/27 04:34:47;;;;;;;;;;;;;;;29.38;40.10;94009.09;4994859;28;8677;-60
2022/08/27 04:37:18;;;;;;;;;;;;;;;29.37;41.10;94004.81;4980899;28;7287;-60
2022/08/27 04:39:51;;;;;;;;;;;;;;;29.36;41.17;94009.63;5005623;28;7120;-60
2022/08/27 04:42:20;;;;;;;;;;;;;;;29.36;40.25;94008.91;5005766;28;9910;-60
2022/08/27 04:44:55;;;;;;;;;;;;;;;29.36;40.94;94003.34;4992559;28;7048;-60
2022/08/27 04:47:26;;;;;;;;;;;;;;;29.37;40.96;94008.34;5009244;28;7205;-60
2022/08/27 04:49:55;;;;;;;;;;;;;;;29.37;40.47;94011.09;4988135;28;7029;-60
2022/08/27 04:52:26;;;;;;;;;;;;;;;29.37;40.53;94011.09;4987210;28;7335;-60
2022/08/27 04:55:09;;;;;;;;;;;;;;;29.38;40.16;94006.31;4993114;28;7348;-60
2022/08/27 04:57:36;;;;;;;;;;;;;;;29.36;40.94;94008.91;4999316;28;7065;-60
2022/08/27 05:00:22;;;;;;;;;;;;;;;29.35;40.28;94010.16;5014766;28;8478;-60
2022/08/27 05:03:07;;;;;;;;;;;;;;;29.33;40.29;94004.44;4990489;28;7188;-60
2022/08/27 05:05:36;;;;;;;;;;;;;;;29.32;41.09;94005.72;4984873;28;9193;-60
2022/08/27 05:08:11;;;;;;;;;;;;;;;29.32;40.74;94011.28;5000660;28;7353;-60
2022/08/27 05:10:56;;;;;;;;;;;;;;;29.29;41.15;94013.09;4978285;28;7019;-60
2022/08/27 05:13:27;;;;;;;;;;;;;;;29.31;40.81;94013.28;4990248;28;7385;-60
2022/08/27 05:16:06;;;;;;;;;;;;;;;29.32;40.90;94014.03;4984987;28;7461;-60
2022/08/27 05:18:37;;;;;;;;;;;;;;;29.30;40.27;94013.81;4993848;28;7178;-60
2022/08/27 05:21:06;;;;;;;;;;;;;;;29.30;40.70;94017.34;5004544;28;7170;-60
2022/08/27 05:23:35;;;;;;;;;;;;;;;29.31;40.97;94015.31;4990756;28;7233;-60
2022/08/27 05:26:01;;;;;;;;;;;;;;;29.30;40.47;94019.34;5000122;28;7294;-61
2022/08/27 05:28:28;;;;;;;;;;;;;;;29.31;40.71;94015.31;4991731;28;7649;-60
2022/08/27 05:31:05;;;;;;;;;;;;;;;29.30;40.64;94014.56;4987355;28;9180;-60
2022/08/27 05:33:43;;;;;;;;;;;;;;;29.30;40.86;94013.81;4991631;28;7151;-60
2022/08/27 05:36:45;;;;;;;;;;;;;;;29.32;41.15;94020.31;4989560;28;7415;-60
2022/08/27 05:39:11;;;;;;;;;;;;;;;29.35;40.39;94018.47;4952414;28;9041;-60
2022/08/27 05:41:46;;;;;;;;;;;;;;;29.36;40.56;94028.28;4953313;28;7200;-60
2022/08/27 05:44:14;;;;;;;;;;;;;;;29.36;41.10;94017.19;4946104;28;7191;-60
2022/08/27 05:46:39;;;;;;;;;;;;;;;29.38;40.41;94017.41;4950084;28;7067;-60
2022/08/27 05:49:10;;;;;;;;;;;;;;;29.41;40.48;94013.53;4950894;28;10672;-58
2022/08/27 05:51:45;;;;;;;;;;;;;;;29.39;40.43;94013.31;4946794;28;7621;-61
2022/08/27 05:54:19;;;;;;;;;;;;;;;29.39;40.27;94016.84;4950667;28;6992;-60
2022/08/27 05:56:48;;;;;;;;;;;;;;;29.39;40.34;94024.41;4930525;28;7322;-60
2022/08/27 06:02:00;;;;;;;;;;;;;;;29.37;39.80;94018.69;4950114;28;7070;-60
2022/08/27 06:04:44;;;;;;;;;;;;;;;29.39;40.46;94010.56;4936481;28;7370;-60
2022/08/27 06:07:10;;;;;;;;;;;;;;;29.40;40.58;94023.88;4942315;28;9543;-60
2022/08/27 06:10:08;;;;;;;;;;;;;;;29.40;40.25;94021.13;4940842;28;7259;-60
2022/08/27 06:12:49;;;;;;;;;;;;;;;29.37;40.11;94022.19;4915290;29;8683;-60
2022/08/27 06:15:20;;;;;;;;;;;;;;;29.33;40.79;94016.25;4936201;28;7079;-60
2022/08/27 06:17:46;;;;;;;;;;;;;;;29.31;40.40;94010.53;4949150;28;7827;-60
2022/08/27 06:20:19;;;;;;;;;;;;;;;29.31;40.07;94020.84;4941973;28;7601;-60
2022/08/27 06:22:45;;;;;;;;;;;;;;;29.33;40.40;94019.03;4947682;28;7298;-61
2022/08/27 06:25:21;;;;;;;;;;;;;;;29.36;40.81;94019.97;4941954;28;7334;-60
2022/08/27 06:27:52;;;;;;;;;;;;;;;29.36;41.01;94022.75;4968764;28;9395;-60
2022/08/27 06:30:40;;;;;;;;;;;;;;;29.38;40.82;94022.94;4962717;28;7234;-60
2022/08/27 06:33:11;;;;;;;;;;;;;;;29.38;40.52;94020.16;4962712;28;8303;-60
2022/08/27 06:35:39;;;;;;;;;;;;;;;29.37;40.85;94019.41;4932398;28;7414;-61
2022/08/27 06:38:38;;;;;;;;;;;;;;;29.36;40.92;94023.47;4925843;28;7359;-61
2022/08/27 06:41:12;;;;;;;;;;;;;;;29.34;40.27;94025.31;4949451;28;7179;-60
2022/08/27 06:43:43;;;;;;;;;;;;;;;29.35;40.96;94027.53;4946786;28;9817;-60
2022/08/27 06:46:13;;;;;;;;;;;;;;;29.35;40.89;94030.31;4939893;28;9497;-60
2022/08/27 06:48:42;;;;;;;;;;;;;;;29.31;40.47;94024.38;4969770;28;10805;-60
2022/08/27 06:51:17;;;;;;;;;;;;;;;29.28;41.39;94030.25;4981419;28;7034;-61
2022/08/27 06:53:46;;;;;;;;;;;;;;;29.29;41.18;94037.28;4975998;28;7434;-60
2022/08/27 06:56:15;;;;;;;;;;;;;;;29.28;40.93;94031.00;4987780;28;7370;-60
2022/08/27 06:58:43;;;;;;;;;;;;;;;29.28;40.48;94035.78;4991034;28;7351;-61
2022/08/27 07:01:32;;;;;;;;;;;;;;;29.29;40.86;94043.56;4988636;28;9406;-60
2022/08/27 07:04:03;;;;;;;;;;;;;;;29.30;40.42;94039.50;4989747;28;7324;-60
2022/08/27 07:06:33;;;;;;;;;;;;;;;29.29;40.62;94043.56;5006613;28;7264;-60
2022/08/27 07:09:09;;;;;;;;;;;;;;;29.30;40.70;94045.03;4994046;28;7051;-60
2022/08/27 07:11:41;;;;;;;;;;;;;;;29.30;40.99;94047.06;4992193;28;7384;-60
2022/08/27 07:14:20;;;;;;;;;;;;;;;29.30;40.61;94044.28;4993103;28;7261;-60
2022/08/27 07:16:49;;;;;;;;;;;;;;;29.27;40.65;94039.84;5011669;28;7244;-60
2022/08/27 07:19:17;;;;;;;;;;;;;;;29.27;41.64;94042.63;5003442;28;7281;-60
2022/08/27 07:21:50;;;;;;;;;;;;;;;29.25;41.56;94048.72;4989950;28;7212;-60
2022/08/27 07:24:23;;;;;;;;;;;;;;;29.25;41.46;94047.97;4990317;28;9610;-60
2022/08/27 07:26:50;;;;;;;;;;;;;;;29.28;40.86;94049.63;4994495;28;9461;-61
2022/08/27 07:29:21;;;;;;;;;;;;;;;29.28;40.84;94049.63;5004726;28;7291;-60
2022/08/27 07:31:55;;;;;;;;;;;;;;;29.26;40.64;94047.41;4993802;28;7295;-60
2022/08/27 07:34:22;;;;;;;;;;;;;;;29.21;41.59;94053.84;5007335;28;7346;-60
2022/08/27 07:36:55;;;;;;;;;;;;;;;29.21;41.53;94053.13;4977608;28;7072;-60
2022/08/27 07:39:33;;;;;;;;;;;;;;;29.19;41.04;94058.47;4986874;28;7314;-61
2022/08/27 07:44:43;;;;;;;;;;;;;;;29.12;41.78;94061.88;4990322;28;8802;-60
2022/08/27 07:47:09;;;;;;;;;;;;;;;29.06;42.07;94062.75;4991972;28;8325;-60
2022/08/27 07:49:36;;;;;;;;;;;;;;;29.09;42.27;94056.13;5005074;28;7592;-61
2022/08/27 07:52:15;;;;;;;;;;;;;;;29.09;41.72;94063.69;5005087;28;7850;-60
2022/08/27 07:54:46;;;;;;;;;;;;;;;29.09;41.75;94060.94;4986475;28;9229;-61
2022/08/27 07:57:19;;;;;;;;;;;;;;;29.10;42.28;94063.16;4989700;28;7280;-61
2022/08/27 07:59:47;;;;;;;;;;;;;;;29.09;42.21;94069.97;5007496;28;7016;-61
2022/08/27 08:02:14;;;;;;;;;;;;;;;29.06;42.11;94068.28;5013133;28;7296;-60
2022/08/27 08:04:43;;;;;;;;;;;;;;;29.08;42.25;94068.47;4973339;28;7434;-60
2022/08/27 08:07:23;;;;;;;;;;;;;;;29.05;42.15;94069.59;4992477;28;7376;-60
2022/08/27 08:09:50;;;;;;;;;;;;;;;29.05;42.25;94069.59;4998528;28;9397;-60
2022/08/27 08:12:22;;;;;;;;;;;;;;;29.04;42.22;94064.56;5004949;28;7483;-61
2022/08/27 08:14:49;;;;;;;;;;;;;;;29.03;42.27;94069.38;5006055;28;7315;-61
2022/08/27 08:17:17;;;;;;;;;;;;;;;29.01;41.95;94071.22;4987559;28;7167;-60
2022/08/27 08:19:44;;;;;;;;;;;;;;;29.03;42.42;94080.47;4983309;28;7232;-60
2022/08/27 08:22:10;;;;;;;;;;;;;;;29.03;42.10;94082.47;4985486;28;7135;-61
2022/08/27 08:24:45;;;;;;;;;;;;;;;29.01;42.26;94083.00;4985992;28;7515;-61
2022/08/27 08:27:12;;;;;;;;;;;;;;;29.03;42.91;94080.47;5003356;28;7009;-60
2022/08/27 08:29:54;;;;;;;;;;;;;;;29.02;42.12;94084.50;4984519;28;7291;-60
2022/08/27 08:32:29;;;;;;;;;;;;;;;28.98;41.99;94073.03;4990646;28;7225;-61
2022/08/27 08:34:55;;;;;;;;;;;;;;;28.99;42.07;94080.03;5007342;28;7423;-61
2022/08/27 08:37:21;;;;;;;;;;;;;;;29.02;42.39;94083.75;5002276;28;7270;-60
2022/08/27 08:39:55;;;;;;;;;;;;;;;29.01;41.98;94079.50;5008668;28;7211;-60
2022/08/27 08:42:34;;;;;;;;;;;;;;;29.04;42.00;94081.19;4996524;28;9172;-61
2022/08/27 08:45:03;;;;;;;;;;;;;;;29.05;42.26;94083.44;4993679;28;7170;-61
2022/08/27 08:47:52;;;;;;;;;;;;;;;29.07;41.96;94080.88;5002003;28;7260;-60
2022/08/27 08:50:24;;;;;;;;;;;;;;;29.08;42.00;94087.88;4991882;28;7236;-61
2022/08/27 08:52:58;;;;;;;;;;;;;;;29.09;41.41;94085.84;5007529;28;7191;-61
2022/08/27 08:55:50;;;;;;;;;;;;;;;29.09;41.55;94088.63;4994454;28;7275;-60
2022/08/27 08:58:45;;;;;;;;;;;;;;;29.08;41.71;94098.94;4990561;28;7288;-60
2022/08/27 09:01:22;;;;;;;;;;;;;;;29.08;41.87;94095.44;4992719;28;7424;-60
2022/08/27 09:04:02;;;;;;;;;;;;;;;29.08;41.67;94098.94;4987214;28;8869;-60
2022/08/27 09:06:57;;;;;;;;;;;;;;;29.11;41.18;94102.66;4995395;28;7238;-60
2022/08/27 09:10:05;;;;;;;;;;;;;;;29.14;40.97;94106.38;4952869;28;7201;-60
2022/08/27 09:12:41;;;;;;;;;;;;;;;29.15;41.32;94096.78;4937132;28;7408;-61
2022/08/27 09:15:28;;;;;;;;;;;;;;;29.14;42.08;94098.06;4949638;28;7709;-60
2022/08/27 09:18:15;;;;;;;;;;;;;;;29.12;42.08;94097.88;4950505;28;9413;-60
2022/08/27 09:20:50;;;;;;;;;;;;;;;29.13;41.33;94105.63;4934618;28;7906;-60
2022/08/27 09:23:38;;;;;;;;;;;;;;;29.15;41.55;94099.56;4945974;28;7684;-60
2022/08/27 09:26:16;;;;;;;;;;;;;;;29.17;41.95;94099.81;4942233;28;7242;-60
2022/08/27 09:29:20;;;;;;;;;;;;;;;29.18;41.38;94098.50;4948265;28;7480;-60
2022/08/27 09:32:07;;;;;;;;;;;;;;;29.20;42.05;94095.94;4935840;28;9641;-60
2022/08/27 09:34:39;;;;;;;;;;;;;;;29.18;41.40;94106.81;4949615;28;7190;-60
2022/08/27 09:37:14;;;;;;;;;;;;;;;29.12;41.31;94108.97;4950779;28;7875;-61
2022/08/27 09:39:48;;;;;;;;;;;;;;;29.10;42.03;94104.69;4935829;28;7394;-61
2022/08/27 09:42:30;;;;;;;;;;;;;;;29.12;41.24;94101.41;4956240;28;7220;-61
2022/08/27 09:44:59;;;;;;;;;;;;;;;29.10;42.43;94095.66;4952864;28;7161;-61
2022/08/27 09:47:29;;;;;;;;;;;;;;;29.12;41.84;94095.09;4991026;28;9369;-61
2022/08/27 09:50:06;;;;;;;;;;;;;;;29.12;42.22;94101.41;5014088;28;7347;-61
2022/08/27 09:52:57;;;;;;;;;;;;;;;29.07;41.59;94089.16;4988141;28;7237;-61
2022/08/27 09:56:16;;;;;;;;;;;;;;;29.12;41.58;94098.63;4990901;28;9385;-60
2022/08/27 09:58:43;;;;;;;;;;;;;;;29.14;41.61;94089.78;4990703;28;10193;-61
2022/08/27 10:01:26;;;;;;;;;;;;;;;29.15;41.62;94080.16;4995522;28;7424;-61
2022/08/27 10:04:14;;;;;;;;;;;;;;;29.10;42.05;94090.84;4990288;28;7243;-61
2022/08/27 10:06:58;;;;;;;;;;;;;;;29.11;42.20;94083.28;4991292;28;9337;-61
2022/08/27 10:10:02;;;;;;;;;;;;;;;29.09;42.31;94072.75;5007466;28;7111;-61
2022/08/27 10:12:57;;;;;;;;;;;;;;;29.14;42.06;94084.22;5005619;28;8176;-61
2022/08/27 10:15:36;;;;;;;;;;;;;;;29.13;42.49;94077.19;4984109;28;9247;-61
2022/08/27 10:18:31;;;;;;;;;;;;;;;29.15;42.79;94082.94;4993139;28;7022;-61
2022/08/27 10:20:59;;;;;;;;;;;;;;;29.15;42.98;94071.84;4983691;28;7438;-61
2022/08/27 10:24:02;;;;;;;;;;;;;;;29.19;42.65;94064.00;5007703;28;7267;-61
2022/08/27 10:27:12;;;;;;;;;;;;;;;29.20;42.98;94066.22;5005518;28;7206;-61
2022/08/27 10:30:09;;;;;;;;;;;;;;;29.19;43.63;94066.78;4947548;28;7248;-61
2022/08/27 10:33:18;;;;;;;;;;;;;;;29.13;44.29;94064.09;4916390;29;7246;-61
2022/08/27 10:35:59;;;;;;;;;;;;;;;29.12;44.49;94065.41;4947789;28;7203;-61
2022/08/27 10:38:52;;;;;;;;;;;;;;;29.10;43.76;94062.44;4916514;29;9102;-61
2022/08/27 10:41:32;;;;;;;;;;;;;;;29.09;43.88;94066.47;4930909;28;7867;-61
2022/08/27 10:44:10;;;;;;;;;;;;;;;29.08;43.76;94065.72;4947694;28;9499;-61
2022/08/27 10:46:49;;;;;;;;;;;;;;;29.08;43.58;94060.19;4930868;28;9497;-61
2022/08/27 10:49:43;;;;;;;;;;;;;;;29.12;43.45;94048.03;4932094;28;9626;-60
2022/08/27 10:52:52;;;;;;;;;;;;;;;29.17;43.61;94055.50;4911781;28;7256;-61
2022/08/27 10:55:32;;;;;;;;;;;;;;;29.19;43.17;94055.69;4946063;28;7112;-61
2022/08/27 10:58:38;;;;;;;;;;;;;;;29.21;43.68;94053.84;4913514;29;6986;-61
2022/08/27 11:01:23;;;;;;;;;;;;;;;29.23;43.44;94056.81;4941648;28;10696;-61
2022/08/27 11:04:02;;;;;;;;;;;;;;;29.26;43.46;94052.97;4928722;28;7218;-61
2022/08/27 11:06:54;;;;;;;;;;;;;;;29.27;42.82;94050.94;4973206;28;7624;-61
2022/08/27 11:10:06;;;;;;;;;;;;;;;29.26;43.06;94052.22;4992413;28;7251;-61
2022/08/27 11:12:50;;;;;;;;;;;;;;;29.26;42.53;94043.91;4988200;28;9168;-61
2022/08/27 11:15:28;;;;;;;;;;;;;;;29.26;42.75;94046.66;5006561;28;8598;-61
2022/08/27 11:18:49;;;;;;;;;;;;;;;29.26;42.71;94041.88;4993006;28;7179;-62
2022/08/27 11:21:21;;;;;;;;;;;;;;;29.27;42.73;94051.69;4930294;29;8251;-61
2022/08/27 11:23:56;;;;;;;;;;;;;;;29.23;42.93;94042.22;4929047;29;9352;-62
2022/08/27 11:26:23;;;;;;;;;;;;;;;29.20;42.74;94044.06;4930594;29;7263;-61
2022/08/27 11:29:09;;;;;;;;;;;;;;;29.20;42.33;94043.31;4928220;28;7305;-61
2022/08/27 11:31:54;;;;;;;;;;;;;;;29.21;42.47;94034.44;4923780;29;9052;-61
2022/08/27 11:34:59;;;;;;;;;;;;;;;29.25;42.39;94031.34;4929239;29;8733;-61
2022/08/27 11:38:01;;;;;;;;;;;;;;;29.28;42.37;94041.31;4925707;29;7211;-61
2022/08/27 11:40:52;;;;;;;;;;;;;;;29.28;42.22;94033.75;4927760;29;8425;-61
2022/08/27 11:43:25;;;;;;;;;;;;;;;29.30;42.61;94033.22;4925358;29;7179;-61
2022/08/27 11:45:57;;;;;;;;;;;;;;;29.31;42.89;94037.47;4931081;29;6983;-61
2022/08/27 11:48:54;;;;;;;;;;;;;;;29.33;42.50;94030.13;4932365;29;7603;-61
2022/08/27 11:51:34;;;;;;;;;;;;;;;29.34;42.63;94022.56;4925000;29;7385;-61
2022/08/27 11:54:27;;;;;;;;;;;;;;;29.33;43.09;94024.56;4936266;28;7287;-60
2022/08/27 12:00:35;;;;;;;;;;;;;;;29.34;42.84;94017.72;5006097;28;7210;-61
2022/08/27 12:03:29;;;;;;;;;;;;;;;29.33;42.96;94021.81;5005163;28;7057;-61
2022/08/27 12:06:40;;;;;;;;;;;;;;;29.35;42.49;94021.25;4990211;28;7441;-61
2022/08/27 12:09:20;;;;;;;;;;;;;;;29.34;42.01;94019.78;5007467;28;7235;-61
2022/08/27 12:12:07;;;;;;;;;;;;;;;29.33;42.35;94021.06;5007945;28;9658;-61
2022/08/27 12:15:03;;;;;;;;;;;;;;;29.33;42.50;94015.50;5009732;28;7304;-61
2022/08/27 12:18:09;;;;;;;;;;;;;;;29.31;41.66;94021.59;4990750;28;7432;-61
2022/08/27 12:20:53;;;;;;;;;;;;;;;29.32;41.64;94011.28;5008336;28;7247;-61
2022/08/27 12:23:40;;;;;;;;;;;;;;;29.34;41.72;94014.97;5011413;28;7158;-61
2022/08/27 12:26:34;;;;;;;;;;;;;;;29.36;42.31;94014.44;4991349;28;7526;-61
2022/08/27 12:29:23;;;;;;;;;;;;;;;29.36;42.10;94014.44;4951986;28;7509;-61
2022/08/27 12:32:28;;;;;;;;;;;;;;;29.36;42.41;94014.44;4965198;28;9618;-61
2022/08/27 12:35:14;;;;;;;;;;;;;;;29.34;42.32;94008.69;4952563;28;6947;-62
2022/08/27 12:37:45;;;;;;;;;;;;;;;29.34;42.33;94014.97;4915309;28;9378;-61
2022/08/27 12:40:45;;;;;;;;;;;;;;;29.36;41.82;94011.66;4899289;29;7009;-61
2022/08/27 12:43:17;;;;;;;;;;;;;;;29.35;43.08;94002.59;4896283;29;7545;-61
2022/08/27 12:45:57;;;;;;;;;;;;;;;29.38;42.10;94001.53;4880386;29;7188;-61
2022/08/27 12:48:31;;;;;;;;;;;;;;;29.42;42.11;94009.47;4894900;29;7283;-61
2022/08/27 12:51:05;;;;;;;;;;;;;;;29.43;43.12;94006.16;4896942;29;7601;-61
2022/08/27 12:54:25;;;;;;;;;;;;;;;29.46;43.86;93998.78;4888724;29;7632;-61
2022/08/27 12:57:29;;;;;;;;;;;;;;;29.50;42.91;93999.16;4853873;29;7395;-61
2022/08/27 13:00:17;;;;;;;;;;;;;;;29.51;42.42;93995.13;4850523;29;8324;-61
2022/08/27 13:03:22;;;;;;;;;;;;;;;29.53;41.94;93998.84;4865188;29;10142;-61
2022/08/27 13:06:00;;;;;;;;;;;;;;;29.55;42.48;93990.72;4882290;29;8683;-61
2022/08/27 13:08:33;;;;;;;;;;;;;;;29.57;42.48;93981.84;4912691;29;7036;-60
2022/08/27 13:11:29;;;;;;;;;;;;;;;29.57;41.99;93988.13;4917914;29;9721;-61
2022/08/27 13:14:14;;;;;;;;;;;;;;;29.57;42.33;93990.91;4923397;29;7227;-61
2022/08/27 13:17:07;;;;;;;;;;;;;;;29.59;42.31;93990.34;4918930;29;9305;-60
2022/08/27 13:19:54;;;;;;;;;;;;;;;29.58;42.20;93984.06;4945993;28;7215;-61
2022/08/27 13:22:42;;;;;;;;;;;;;;;29.59;41.93;93985.56;4961586;28;7197;-61
2022/08/27 13:25:20;;;;;;;;;;;;;;;29.61;42.56;93985.75;4961979;28;9702;-61
2022/08/27 13:27:58;;;;;;;;;;;;;;;29.62;42.68;93980.94;4948834;28;7467;-61
2022/08/27 13:30:40;;;;;;;;;;;;;;;29.61;41.95;93977.44;4958778;28;7588;-61
2022/08/27 13:33:13;;;;;;;;;;;;;;;29.62;42.78;93983.72;4951885;28;7579;-60
2022/08/27 13:36:08;;;;;;;;;;;;;;;29.62;42.98;93983.72;4995246;28;9287;-61
2022/08/27 13:38:40;;;;;;;;;;;;;;;29.63;43.01;93983.16;4951917;28;9421;-61
2022/08/27 13:41:35;;;;;;;;;;;;;;;29.65;42.23;93977.06;4952629;28;7121;-61
2022/08/27 13:44:12;;;;;;;;;;;;;;;29.68;42.14;93982.28;4952852;28;7187;-60
2022/08/27 13:46:48;;;;;;;;;;;;;;;29.68;42.53;93978.75;4936508;28;7018;-60
2022/08/27 13:49:22;;;;;;;;;;;;;;;29.66;42.71;93975.78;4935035;28;8471;-61
2022/08/27 13:51:57;;;;;;;;;;;;;;;29.66;43.04;93982.09;4953106;28;9937;-62
2022/08/27 13:54:30;;;;;;;;;;;;;;;29.66;42.76;93978.56;4952353;28;7029;-61
2022/08/27 13:57:09;;;;;;;;;;;;;;;29.68;42.65;93987.81;4951259;28;7109;-61
2022/08/27 13:59:39;;;;;;;;;;;;;;;29.68;42.49;93987.81;4950473;28;10542;-61
2022/08/27 14:02:14;;;;;;;;;;;;;;;29.72;43.01;93995.78;4935562;28;7180;-61
2022/08/27 14:05:10;;;;;;;;;;;;;;;29.72;42.71;93996.53;4952690;28;9441;-61